createdAt,value
2022-09-02T00:00:13.988Z,16.38
2022-09-02T00:01:17.659Z,16.31
2022-09-02T00:02:21.499Z,16.31
2022-09-02T00:04:02.135Z,16.25
2022-09-02T00:05:05.649Z,16.25
2022-09-02T00:06:08.939Z,16.25
2022-09-02T00:07:44.514Z,16.19
2022-09-02T00:08:48.023Z,16.19
2022-09-02T00:09:51.677Z,16.19
2022-09-02T00:11:27.024Z,16.19
2022-09-02T00:12:31.871Z,16.19
2022-09-02T00:13:35.461Z,16.19
2022-09-02T00:15:10.997Z,16.19
2022-09-02T00:16:14.374Z,16.19
2022-09-02T00:17:18.459Z,16.19
2022-09-02T00:19:03.275Z,16.13
2022-09-02T00:20:06.581Z,16.06
2022-09-02T00:21:09.907Z,16.06
2022-09-02T00:22:45.592Z,16.00
2022-09-02T00:23:48.976Z,16.00
2022-09-02T00:24:52.367Z,15.94
2022-09-02T00:26:27.861Z,15.94
2022-09-02T00:27:37.105Z,15.88
2022-09-02T00:28:44.310Z,15.88
2022-09-02T00:30:26.279Z,15.88
2022-09-02T00:31:29.845Z,15.88
2022-09-02T00:32:33.667Z,15.88
2022-09-02T00:34:09.154Z,15.88
2022-09-02T00:35:12.657Z,15.88
2022-09-02T00:36:16.121Z,15.88
2022-09-02T00:37:51.536Z,15.88
2022-09-02T00:38:54.819Z,15.81
2022-09-02T00:39:58.219Z,15.75
2022-09-02T00:41:34.384Z,15.75
2022-09-02T00:42:37.664Z,15.69
2022-09-02T00:43:41.086Z,15.63
2022-09-02T00:45:16.705Z,15.63
2022-09-02T00:46:20.469Z,15.63
2022-09-02T00:47:24.034Z,15.63
2022-09-02T00:48:59.341Z,15.56
2022-09-02T00:50:02.766Z,15.56
2022-09-02T00:51:06.971Z,15.56
2022-09-02T00:52:43.407Z,15.56
2022-09-02T00:53:46.695Z,15.56
2022-09-02T00:54:50.124Z,15.63
2022-09-02T00:56:25.486Z,15.63
2022-09-02T00:57:31.190Z,15.63
2022-09-02T00:58:34.645Z,15.63
2022-09-02T01:00:12.624Z,15.56
2022-09-02T01:01:21.757Z,15.56
2022-09-02T01:02:26.496Z,15.56
2022-09-02T01:04:02.112Z,15.50
2022-09-02T01:05:05.476Z,15.50
2022-09-02T01:06:08.915Z,15.50
2022-09-02T01:07:45.707Z,15.50
2022-09-02T01:08:49.015Z,15.50
2022-09-02T01:09:52.440Z,15.44
2022-09-02T01:11:28.393Z,15.44
2022-09-02T01:12:31.704Z,15.44
2022-09-02T01:13:35.102Z,15.38
2022-09-02T01:15:15.043Z,15.38
2022-09-02T01:16:19.874Z,15.38
2022-09-02T01:17:30.225Z,15.38
2022-09-02T01:19:06.842Z,15.44
2022-09-02T01:20:10.079Z,15.44
2022-09-02T01:21:17.649Z,15.44
2022-09-02T01:22:53.158Z,15.44
2022-09-02T01:24:00.183Z,15.44
2022-09-02T01:25:03.554Z,15.44
2022-09-02T01:26:39.037Z,15.44
2022-09-02T01:27:42.441Z,15.44
2022-09-02T01:28:45.936Z,15.44
2022-09-02T01:30:22.903Z,15.44
2022-09-02T01:31:26.341Z,15.44
2022-09-02T01:32:30.356Z,15.44
2022-09-02T01:34:09.916Z,15.44
2022-09-02T01:35:14.548Z,15.44
2022-09-02T01:36:17.869Z,15.44
2022-09-02T01:37:55.623Z,15.50
2022-09-02T01:38:59.244Z,15.50
2022-09-02T01:40:02.733Z,15.50
2022-09-02T01:41:40.913Z,15.44
2022-09-02T01:42:44.285Z,15.44
2022-09-02T01:43:47.784Z,15.44
2022-09-02T01:45:23.520Z,15.44
2022-09-02T01:46:26.970Z,15.38
2022-09-02T01:47:31.196Z,15.38
2022-09-02T01:49:08.405Z,15.38
2022-09-02T01:50:16.724Z,15.38
2022-09-02T01:51:27.383Z,15.44
2022-09-02T01:53:03.318Z,15.44
2022-09-02T01:54:08.537Z,15.44
2022-09-02T01:55:13.539Z,15.44
2022-09-02T01:56:48.892Z,15.44
2022-09-02T01:57:52.280Z,15.44
2022-09-02T01:58:55.735Z,15.44
2022-09-02T02:00:12.398Z,15.44
2022-09-02T02:01:15.913Z,15.44
2022-09-02T02:02:20.298Z,15.44
2022-09-02T02:03:56.879Z,15.50
2022-09-02T02:05:06.261Z,15.50
2022-09-02T02:06:09.589Z,15.50
2022-09-02T02:07:45.525Z,15.50
2022-09-02T02:08:50.038Z,15.56
2022-09-02T02:09:53.573Z,15.56
2022-09-02T02:11:28.977Z,15.63
2022-09-02T02:12:32.314Z,15.63
2022-09-02T02:13:35.738Z,15.63
2022-09-02T02:15:11.242Z,15.63
2022-09-02T02:16:14.056Z,15.63
2022-09-02T02:17:17.965Z,15.63
2022-09-02T02:18:53.542Z,15.63
2022-09-02T02:19:56.946Z,15.63
2022-09-02T02:21:00.442Z,15.63
2022-09-02T02:22:38.440Z,15.63
2022-09-02T02:23:41.823Z,15.69
2022-09-02T02:24:45.250Z,15.69
2022-09-02T02:26:20.974Z,15.69
2022-09-02T02:27:24.515Z,15.63
2022-09-02T02:28:30.197Z,15.69
2022-09-02T02:30:06.456Z,15.69
2022-09-02T02:31:09.947Z,15.69
2022-09-02T02:32:14.076Z,15.69
2022-09-02T02:33:49.676Z,15.69
2022-09-02T02:34:53.149Z,15.69
2022-09-02T02:35:56.704Z,15.69
2022-09-02T02:37:32.289Z,15.69
2022-09-02T02:38:38.911Z,15.69
2022-09-02T02:39:42.465Z,15.69
2022-09-02T02:41:19.332Z,15.69
2022-09-02T02:42:25.695Z,15.69
2022-09-02T02:43:29.326Z,15.69
2022-09-02T02:45:04.827Z,15.69
2022-09-02T02:46:13.303Z,15.69
2022-09-02T02:47:17.568Z,15.63
2022-09-02T02:48:53.454Z,15.63
2022-09-02T02:49:56.910Z,15.69
2022-09-02T02:51:00.559Z,15.69
2022-09-02T02:52:36.366Z,15.69
2022-09-02T02:53:39.963Z,15.69
2022-09-02T02:54:49.008Z,15.63
2022-09-02T02:56:30.532Z,15.69
2022-09-02T02:57:34.064Z,15.69
2022-09-02T02:58:37.574Z,15.63
2022-09-02T03:00:11.974Z,15.63
2022-09-02T03:01:16.308Z,15.63
2022-09-02T03:02:20.576Z,15.63
2022-09-02T03:03:57.694Z,15.63
2022-09-02T03:05:01.029Z,15.63
2022-09-02T03:06:04.601Z,15.63
2022-09-02T03:07:44.969Z,15.63
2022-09-02T03:08:48.107Z,15.63
2022-09-02T03:09:54.515Z,15.56
2022-09-02T03:11:29.668Z,15.56
2022-09-02T03:12:32.921Z,15.56
2022-09-02T03:13:36.041Z,15.56
2022-09-02T03:15:11.230Z,15.56
2022-09-02T03:16:14.791Z,15.56
2022-09-02T03:17:18.454Z,15.56
2022-09-02T03:18:53.712Z,15.56
2022-09-02T03:19:56.988Z,15.56
2022-09-02T03:21:01.698Z,15.56
2022-09-02T03:22:45.778Z,15.56
2022-09-02T03:23:50.207Z,15.56
2022-09-02T03:24:55.632Z,15.56
2022-09-02T03:26:32.469Z,15.56
2022-09-02T03:27:35.756Z,15.56
2022-09-02T03:28:39.060Z,15.56
2022-09-02T03:30:14.299Z,15.56
2022-09-02T03:31:17.668Z,15.56
2022-09-02T03:32:21.383Z,15.56
2022-09-02T03:34:00.419Z,15.56
2022-09-02T03:35:04.121Z,15.56
2022-09-02T03:36:07.472Z,15.56
2022-09-02T03:37:42.522Z,15.56
2022-09-02T03:38:48.334Z,15.56
2022-09-02T03:39:56.340Z,15.56
2022-09-02T03:41:33.368Z,15.56
2022-09-02T03:42:36.541Z,15.56
2022-09-02T03:43:46.347Z,15.56
2022-09-02T03:45:21.990Z,15.56
2022-09-02T03:46:25.588Z,15.56
2022-09-02T03:47:28.861Z,15.56
2022-09-02T03:49:04.386Z,15.56
2022-09-02T03:50:07.572Z,15.56
2022-09-02T03:51:10.843Z,15.63
2022-09-02T03:52:45.949Z,15.63
2022-09-02T03:53:54.924Z,15.63
2022-09-02T03:54:58.111Z,15.63
2022-09-02T03:56:37.231Z,15.63
2022-09-02T03:57:42.466Z,15.63
2022-09-02T03:58:49.376Z,15.63
2022-09-02T04:00:12.700Z,15.63
2022-09-02T04:01:16.729Z,15.63
2022-09-02T04:02:27.543Z,15.63
2022-09-02T04:04:09.082Z,15.63
2022-09-02T04:05:42.968Z,15.63
2022-09-02T04:06:46.094Z,15.63
2022-09-02T04:07:49.217Z,15.63
2022-09-02T04:09:24.743Z,15.63
2022-09-02T04:10:33.084Z,15.63
2022-09-02T04:11:36.502Z,15.56
2022-09-02T04:13:19.001Z,15.56
2022-09-02T04:14:22.401Z,15.56
2022-09-02T04:15:32.516Z,15.56
2022-09-02T04:17:17.757Z,15.56
2022-09-02T04:18:22.345Z,15.56
2022-09-02T04:19:28.640Z,15.63
2022-09-02T04:21:03.936Z,15.56
2022-09-02T04:22:07.174Z,15.56
2022-09-02T04:23:10.539Z,15.56
2022-09-02T04:24:46.668Z,15.56
2022-09-02T04:25:50.042Z,15.56
2022-09-02T04:26:53.435Z,15.56
2022-09-02T04:28:34.191Z,15.56
2022-09-02T04:29:41.301Z,15.50
2022-09-02T04:30:44.761Z,15.50
2022-09-02T04:32:21.409Z,15.50
2022-09-02T04:33:32.033Z,15.50
2022-09-02T04:34:35.278Z,15.50
2022-09-02T04:36:14.618Z,15.50
2022-09-02T04:37:23.498Z,15.50
2022-09-02T04:38:26.898Z,15.50
2022-09-02T04:40:02.304Z,15.50
2022-09-02T04:41:05.939Z,15.50
2022-09-02T04:42:09.295Z,15.50
2022-09-02T04:43:44.694Z,15.50
2022-09-02T04:44:48.089Z,15.50
2022-09-02T04:45:51.525Z,15.50
2022-09-02T04:47:41.182Z,15.50
2022-09-02T04:48:44.905Z,15.50
2022-09-02T04:49:48.735Z,15.50
2022-09-02T04:51:24.377Z,15.50
2022-09-02T04:52:27.670Z,15.44
2022-09-02T04:53:30.947Z,15.44
2022-09-02T04:55:06.775Z,15.50
2022-09-02T04:56:10.035Z,15.50
2022-09-02T04:57:13.351Z,15.50
2022-09-02T04:58:50.261Z,15.50
2022-09-02T04:59:53.604Z,15.50
2022-09-02T05:00:12.807Z,15.50
2022-09-02T05:01:16.125Z,15.50
2022-09-02T05:02:20.455Z,15.50
2022-09-02T05:03:57.069Z,15.44
2022-09-02T05:05:00.346Z,15.44
2022-09-02T05:06:03.849Z,15.44
2022-09-02T05:07:39.294Z,15.50
2022-09-02T05:08:42.525Z,15.50
2022-09-02T05:09:46.066Z,15.50
2022-09-02T05:11:22.137Z,15.50
2022-09-02T05:12:25.553Z,15.50
2022-09-02T05:13:28.942Z,15.50
2022-09-02T05:15:05.864Z,15.50
2022-09-02T05:16:09.471Z,15.50
2022-09-02T05:17:13.378Z,15.50
2022-09-02T05:18:50.526Z,15.50
2022-09-02T05:19:55.224Z,15.44
2022-09-02T05:20:58.567Z,15.44
2022-09-02T05:22:33.890Z,15.44
2022-09-02T05:23:37.228Z,15.50
2022-09-02T05:24:41.124Z,15.50
2022-09-02T05:26:16.400Z,15.50
2022-09-02T05:27:19.795Z,15.50
2022-09-02T05:28:24.729Z,15.50
2022-09-02T05:30:00.174Z,15.56
2022-09-02T05:31:03.509Z,15.56
2022-09-02T05:32:07.296Z,15.56
2022-09-02T05:33:50.144Z,15.56
2022-09-02T05:34:53.619Z,15.56
2022-09-02T05:35:57.102Z,15.56
2022-09-02T05:37:33.774Z,15.63
2022-09-02T05:38:41.650Z,15.56
2022-09-02T05:39:45.224Z,15.56
2022-09-02T05:41:30.382Z,15.56
2022-09-02T05:42:33.631Z,15.56
2022-09-02T05:43:40.852Z,15.56
2022-09-02T05:45:22.018Z,15.63
2022-09-02T05:46:25.940Z,15.63
2022-09-02T05:47:35.124Z,15.63
2022-09-02T05:49:10.628Z,15.63
2022-09-02T05:50:14.321Z,15.63
2022-09-02T05:51:33.495Z,15.63
2022-09-02T05:53:14.185Z,15.63
2022-09-02T05:54:18.431Z,15.63
2022-09-02T05:55:21.595Z,15.63
2022-09-02T05:56:57.066Z,15.69
2022-09-02T05:58:00.501Z,15.69
2022-09-02T05:59:03.863Z,15.69
2022-09-02T06:00:17.947Z,15.69
2022-09-02T06:01:22.013Z,15.69
2022-09-02T06:02:26.484Z,15.69
2022-09-02T06:04:02.740Z,15.69
2022-09-02T06:05:06.156Z,15.69
2022-09-02T06:06:09.530Z,15.69
2022-09-02T06:07:48.854Z,15.69
2022-09-02T06:08:52.025Z,15.69
2022-09-02T06:09:55.486Z,15.75
2022-09-02T06:11:30.875Z,15.75
2022-09-02T06:12:35.942Z,15.75
2022-09-02T06:13:40.860Z,15.81
2022-09-02T06:15:16.429Z,15.81
2022-09-02T06:16:20.386Z,15.81
2022-09-02T06:17:24.416Z,15.88
2022-09-02T06:19:03.456Z,15.88
2022-09-02T06:20:12.855Z,15.88
2022-09-02T06:21:16.169Z,15.94
2022-09-02T06:22:52.270Z,15.94
2022-09-02T06:23:56.297Z,15.94
2022-09-02T06:24:59.857Z,15.94
2022-09-02T06:26:35.430Z,16.00
2022-09-02T06:27:42.241Z,16.00
2022-09-02T06:28:50.432Z,16.00
2022-09-02T06:30:27.539Z,16.00
2022-09-02T06:31:34.679Z,16.00
2022-09-02T06:32:38.344Z,16.06
2022-09-02T06:34:20.542Z,16.06
2022-09-02T06:35:24.069Z,16.06
2022-09-02T06:36:28.214Z,16.13
2022-09-02T06:38:04.501Z,16.13
2022-09-02T06:39:07.777Z,16.13
2022-09-02T06:40:11.332Z,16.13
2022-09-02T06:41:47.422Z,16.19
2022-09-02T06:42:50.720Z,16.19
2022-09-02T06:43:54.332Z,16.19
2022-09-02T06:45:33.889Z,16.19
2022-09-02T06:46:37.829Z,16.19
2022-09-02T06:47:46.158Z,16.25
2022-09-02T06:49:25.853Z,16.25
2022-09-02T06:50:29.216Z,16.31
2022-09-02T06:51:32.665Z,16.31
2022-09-02T06:53:08.253Z,16.31
2022-09-02T06:54:14.008Z,16.31
2022-09-02T06:55:17.704Z,16.31
2022-09-02T06:56:53.228Z,16.38
2022-09-02T06:57:59.648Z,16.38
2022-09-02T06:59:03.138Z,16.44
2022-09-02T07:00:12.386Z,16.44
2022-09-02T07:01:15.910Z,16.50
2022-09-02T07:02:20.740Z,16.50
2022-09-02T07:03:56.327Z,16.56
2022-09-02T07:04:59.629Z,16.56
2022-09-02T07:06:03.280Z,16.63
2022-09-02T07:07:41.294Z,16.69
2022-09-02T07:08:44.620Z,16.69
2022-09-02T07:09:48.024Z,16.75
2022-09-02T07:11:23.553Z,16.75
2022-09-02T07:12:26.987Z,16.81
2022-09-02T07:13:31.001Z,16.81
2022-09-02T07:15:07.390Z,16.88
2022-09-02T07:16:11.020Z,16.94
2022-09-02T07:17:25.510Z,16.94
2022-09-02T07:19:00.414Z,17.00
2022-09-02T07:20:12.401Z,17.00
2022-09-02T07:21:15.301Z,17.00
2022-09-02T07:22:53.735Z,17.00
2022-09-02T07:23:56.426Z,17.06
2022-09-02T07:24:59.068Z,17.06
2022-09-02T07:26:33.566Z,17.13
2022-09-02T07:27:41.495Z,17.13
2022-09-02T07:28:45.157Z,17.13
2022-09-02T07:30:19.621Z,17.19
2022-09-02T07:31:24.534Z,17.19
2022-09-02T07:32:27.146Z,17.19
2022-09-02T07:34:01.900Z,17.25
2022-09-02T07:35:04.521Z,17.31
2022-09-02T07:36:10.946Z,17.31
2022-09-02T07:37:52.252Z,17.31
2022-09-02T07:38:54.894Z,17.31
2022-09-02T07:39:57.557Z,17.38
2022-09-02T07:41:37.684Z,17.38
2022-09-02T07:42:42.592Z,17.44
2022-09-02T07:43:48.434Z,17.44
2022-09-02T07:45:28.809Z,17.50
2022-09-02T07:46:32.009Z,17.56
2022-09-02T07:47:37.940Z,17.56
2022-09-02T07:49:12.687Z,17.63
2022-09-02T07:51:08.395Z,17.69
2022-09-02T07:52:16.897Z,17.75
2022-09-02T07:53:54.209Z,17.81
2022-09-02T07:54:56.906Z,17.81
2022-09-02T07:56:06.195Z,17.88
2022-09-02T07:57:40.590Z,17.88
2022-09-02T07:58:43.940Z,17.94
2022-09-02T07:59:46.622Z,17.94
2022-09-02T08:00:12.614Z,17.94
2022-09-02T08:01:17.970Z,17.94
2022-09-02T08:02:24.899Z,18.00
2022-09-02T08:04:02.782Z,18.00
2022-09-02T08:05:08.471Z,18.06
2022-09-02T08:06:11.283Z,18.06
2022-09-02T08:07:57.965Z,18.13
2022-09-02T08:09:00.840Z,18.19
2022-09-02T08:10:03.542Z,18.25
2022-09-02T08:11:38.428Z,18.31
2022-09-02T08:12:41.093Z,18.38
2022-09-02T08:13:43.975Z,18.38
2022-09-02T08:15:23.972Z,18.50
2022-09-02T08:16:31.395Z,18.50
2022-09-02T08:17:35.074Z,18.56
2022-09-02T08:19:10.141Z,18.63
2022-09-02T08:20:12.915Z,18.69
2022-09-02T08:21:15.634Z,18.69
2022-09-02T08:22:59.265Z,18.75
2022-09-02T08:24:37.955Z,18.81
2022-09-02T08:25:40.587Z,18.94
2022-09-02T08:27:15.161Z,19.00
2022-09-02T08:28:18.216Z,19.06
2022-09-02T08:29:21.401Z,19.19
2022-09-02T08:30:56.129Z,19.19
2022-09-02T08:31:59.048Z,19.38
2022-09-02T08:33:02.434Z,19.44
2022-09-02T08:34:37.123Z,19.63
2022-09-02T08:35:39.947Z,19.75
2022-09-02T08:36:42.537Z,19.81
2022-09-02T08:38:26.967Z,19.94
2022-09-02T08:39:29.917Z,20.00
2022-09-02T08:40:32.702Z,20.06
2022-09-02T08:42:08.516Z,20.19
2022-09-02T08:43:11.919Z,20.25
2022-09-02T08:44:14.987Z,20.31
2022-09-02T08:45:51.213Z,20.38
2022-09-02T08:46:54.745Z,20.38
2022-09-02T08:47:57.738Z,20.44
2022-09-02T08:49:34.575Z,20.50
2022-09-02T08:50:37.943Z,20.50
2022-09-02T08:51:41.052Z,20.63
2022-09-02T08:53:29.796Z,20.81
2022-09-02T08:54:32.542Z,20.88
2022-09-02T08:55:35.221Z,20.94
2022-09-02T08:57:09.629Z,21.06
2022-09-02T08:58:19.136Z,21.19
2022-09-02T08:59:21.874Z,21.25
2022-09-02T09:00:12.293Z,21.25
2022-09-02T09:01:15.422Z,21.25
2022-09-02T09:02:19.094Z,21.31
2022-09-02T09:04:04.812Z,21.31
2022-09-02T09:05:07.670Z,21.38
2022-09-02T09:06:10.416Z,21.44
2022-09-02T09:07:45.176Z,21.50
2022-09-02T09:08:56.788Z,21.50
2022-09-02T09:09:59.722Z,21.56
2022-09-02T09:11:34.198Z,21.56
2022-09-02T09:12:38.249Z,21.63
2022-09-02T09:13:41.652Z,21.69
2022-09-02T09:15:17.787Z,21.81
2022-09-02T09:16:20.681Z,21.94
2022-09-02T09:17:27.923Z,21.94
2022-09-02T09:19:03.867Z,22.06
2022-09-02T09:20:09.684Z,22.06
2022-09-02T09:21:12.345Z,22.06
2022-09-02T09:22:46.894Z,22.06
2022-09-02T09:23:53.594Z,22.06
2022-09-02T09:24:56.407Z,22.06
2022-09-02T09:26:31.261Z,22.13
2022-09-02T09:27:34.067Z,22.19
2022-09-02T09:28:37.008Z,22.25
2022-09-02T09:30:15.517Z,22.31
2022-09-02T09:31:18.823Z,22.38
2022-09-02T09:32:21.994Z,22.38
2022-09-02T09:33:56.760Z,22.44
2022-09-02T09:34:59.531Z,22.44
2022-09-02T09:36:02.505Z,22.44
2022-09-02T09:37:37.224Z,22.44
2022-09-02T09:38:39.862Z,22.44
2022-09-02T09:39:42.642Z,22.50
2022-09-02T09:41:17.970Z,22.63
2022-09-02T09:42:20.825Z,22.69
2022-09-02T09:43:30.449Z,22.75
2022-09-02T09:45:05.155Z,22.88
2022-09-02T09:46:08.387Z,22.94
2022-09-02T09:47:15.935Z,23.06
2022-09-02T09:48:51.227Z,23.13
2022-09-02T09:49:56.748Z,23.19
2022-09-02T09:51:02.332Z,23.19
2022-09-02T09:52:56.343Z,23.31
2022-09-02T09:53:59.211Z,23.31
2022-09-02T09:55:01.941Z,23.38
2022-09-02T09:56:46.518Z,23.44
2022-09-02T09:57:56.698Z,23.50
2022-09-02T09:58:59.361Z,23.50
2022-09-02T10:00:11.565Z,23.56
2022-09-02T10:01:14.659Z,23.56
2022-09-02T10:02:18.026Z,23.63
2022-09-02T10:03:59.535Z,23.69
2022-09-02T10:05:35.464Z,23.69
2022-09-02T10:06:38.264Z,23.75
2022-09-02T10:08:15.303Z,23.81
2022-09-02T10:09:18.319Z,23.88
2022-09-02T10:10:24.318Z,23.88
2022-09-02T10:11:58.884Z,24.00
2022-09-02T10:13:01.546Z,24.06
2022-09-02T10:14:05.632Z,24.00
2022-09-02T10:15:47.523Z,24.00
2022-09-02T10:16:50.590Z,23.94
2022-09-02T10:17:53.472Z,23.94
2022-09-02T10:19:30.765Z,24.00
2022-09-02T10:20:37.209Z,24.06
2022-09-02T10:22:07.928Z,24.19
2022-09-02T10:24:16.169Z,24.31
2022-09-02T10:25:18.820Z,24.38
2022-09-02T10:26:21.575Z,24.38
2022-09-02T10:27:56.337Z,24.50
2022-09-02T10:29:03.418Z,24.56
2022-09-02T10:30:06.947Z,24.56
2022-09-02T10:31:41.650Z,24.75
2022-09-02T10:32:44.642Z,24.75
2022-09-02T10:33:47.456Z,24.69
2022-09-02T10:35:22.908Z,24.69
2022-09-02T10:36:26.091Z,24.69
2022-09-02T10:37:28.898Z,24.69
2022-09-02T10:39:03.623Z,24.69
2022-09-02T10:40:08.361Z,24.75
2022-09-02T10:41:11.952Z,24.75
2022-09-02T10:42:46.664Z,24.69
2022-09-02T10:43:49.390Z,24.81
2022-09-02T10:45:00.351Z,24.88
2022-09-02T10:46:35.185Z,24.94
2022-09-02T10:47:38.606Z,25.00
2022-09-02T10:48:41.536Z,24.94
2022-09-02T10:50:15.850Z,24.94
2022-09-02T10:51:24.252Z,24.88
2022-09-02T10:52:26.997Z,24.88
2022-09-02T10:54:01.793Z,24.94
2022-09-02T10:55:09.633Z,25.00
2022-09-02T10:56:14.496Z,25.06
2022-09-02T10:57:49.692Z,25.19
2022-09-02T10:58:52.529Z,25.25
2022-09-02T10:59:55.149Z,25.25
2022-09-02T11:00:12.767Z,25.25
2022-09-02T11:01:16.738Z,25.25
2022-09-02T11:02:19.850Z,25.25
2022-09-02T11:03:54.646Z,25.25
2022-09-02T11:05:04.815Z,25.25
2022-09-02T11:06:07.674Z,25.25
2022-09-02T11:08:13.944Z,25.19
2022-09-02T11:09:23.227Z,25.19
2022-09-02T11:10:26.152Z,25.13
2022-09-02T11:12:00.801Z,25.13
2022-09-02T11:13:03.687Z,25.19
2022-09-02T11:14:06.711Z,25.19
2022-09-02T11:15:46.349Z,25.19
2022-09-02T11:16:51.495Z,25.19
2022-09-02T11:17:59.705Z,25.19
2022-09-02T11:19:35.083Z,25.25
2022-09-02T11:20:37.816Z,25.31
2022-09-02T11:21:40.897Z,25.31
2022-09-02T11:23:17.402Z,25.25
2022-09-02T11:24:21.444Z,25.25
2022-09-02T11:25:27.268Z,25.25
2022-09-02T11:27:02.529Z,25.31
2022-09-02T11:28:35.453Z,25.38
2022-09-02T11:29:39.668Z,25.44
2022-09-02T11:31:14.846Z,25.56
2022-09-02T11:32:19.933Z,25.63
2022-09-02T11:33:23.202Z,25.69
2022-09-02T11:34:58.102Z,25.81
2022-09-02T11:36:00.800Z,25.75
2022-09-02T11:37:08.654Z,25.69
2022-09-02T11:38:49.323Z,25.75
2022-09-02T11:40:33.862Z,25.75
2022-09-02T11:42:27.715Z,25.75
2022-09-02T11:44:07.868Z,25.94
2022-09-02T11:45:15.706Z,26.06
2022-09-02T11:46:20.217Z,26.19
2022-09-02T11:47:57.568Z,26.25
2022-09-02T11:49:02.198Z,26.25
2022-09-02T11:50:06.427Z,26.19
2022-09-02T11:51:46.554Z,26.13
2022-09-02T11:52:53.172Z,25.94
2022-09-02T11:53:56.764Z,25.75
2022-09-02T11:55:43.133Z,25.56
2022-09-02T11:56:50.903Z,25.44
2022-09-02T11:57:53.728Z,25.38
2022-09-02T11:59:28.319Z,25.31
2022-09-02T12:00:12.280Z,25.25
2022-09-02T12:01:16.006Z,25.19
2022-09-02T12:02:30.918Z,25.13
2022-09-02T12:05:37.735Z,25.19
2022-09-02T12:06:42.363Z,25.25
2022-09-02T12:07:52.011Z,25.44
2022-09-02T12:09:27.120Z,25.63
2022-09-02T12:10:30.005Z,25.81
2022-09-02T12:11:33.067Z,26.00
2022-09-02T12:13:09.519Z,26.25
2022-09-02T12:14:13.829Z,26.31
2022-09-02T12:15:20.022Z,26.19
2022-09-02T12:16:56.287Z,26.06
2022-09-02T12:18:00.913Z,26.00
2022-09-02T12:19:05.209Z,25.94
2022-09-02T12:20:42.006Z,25.88
2022-09-02T12:21:58.421Z,25.81
2022-09-02T12:23:01.309Z,25.69
2022-09-02T12:24:36.185Z,25.50
2022-09-02T12:25:41.440Z,25.44
2022-09-02T12:26:50.766Z,25.31
2022-09-02T12:28:27.329Z,25.25
2022-09-02T12:29:30.258Z,25.19
2022-09-02T12:30:39.630Z,25.13
2022-09-02T12:32:15.641Z,25.06
2022-09-02T12:33:18.982Z,25.06
2022-09-02T12:34:21.961Z,25.00
2022-09-02T12:35:57.058Z,25.00
2022-09-02T12:37:00.534Z,25.06
2022-09-02T12:38:03.471Z,25.06
2022-09-02T12:39:44.663Z,25.06
2022-09-02T12:40:54.002Z,25.06
2022-09-02T12:41:59.128Z,25.06
2022-09-02T12:43:34.398Z,25.06
2022-09-02T12:44:37.719Z,25.06
2022-09-02T12:45:42.906Z,25.00
2022-09-02T12:47:21.234Z,25.00
2022-09-02T12:48:37.868Z,25.13
2022-09-02T12:49:41.373Z,25.19
2022-09-02T12:51:18.200Z,25.25
2022-09-02T12:52:22.059Z,25.25
2022-09-02T12:53:25.392Z,25.25
2022-09-02T12:54:59.942Z,25.19
2022-09-02T12:56:02.739Z,25.19
2022-09-02T12:57:05.306Z,25.13
2022-09-02T12:58:40.793Z,25.13
2022-09-02T12:59:48.796Z,25.13
2022-09-02T13:00:11.877Z,25.06
2022-09-02T13:01:14.839Z,25.06
2022-09-02T13:02:19.049Z,25.06
2022-09-02T13:03:58.737Z,25.00
2022-09-02T13:05:01.617Z,25.00
2022-09-02T13:06:04.417Z,25.00
2022-09-02T13:07:39.146Z,25.00
2022-09-02T13:08:48.344Z,25.00
2022-09-02T13:09:51.467Z,25.00
2022-09-02T13:11:28.827Z,25.00
2022-09-02T13:12:31.654Z,24.94
2022-09-02T13:13:34.583Z,24.94
2022-09-02T13:15:09.163Z,24.94
2022-09-02T13:16:19.089Z,24.94
2022-09-02T13:17:36.028Z,24.94
2022-09-02T13:19:11.632Z,25.00
2022-09-02T13:20:14.761Z,25.06
2022-09-02T13:21:18.444Z,25.13
2022-09-02T13:22:54.024Z,25.50
2022-09-02T13:24:11.748Z,25.63
2022-09-02T13:25:17.460Z,25.88
2022-09-02T13:27:24.928Z,26.06
2022-09-02T13:28:27.621Z,26.13
2022-09-02T13:29:30.592Z,26.19
2022-09-02T13:31:05.419Z,26.13
2022-09-02T13:32:08.684Z,26.13
2022-09-02T13:33:11.300Z,26.06
2022-09-02T13:34:51.783Z,25.94
2022-09-02T13:35:59.421Z,25.75
2022-09-02T13:37:02.168Z,25.63
2022-09-02T13:38:39.738Z,25.56
2022-09-02T13:39:43.076Z,25.56
2022-09-02T13:40:46.396Z,25.63
2022-09-02T13:42:23.493Z,25.75
2022-09-02T13:43:30.528Z,25.81
2022-09-02T13:44:33.361Z,25.81
2022-09-02T13:46:08.200Z,25.88
2022-09-02T13:47:11.381Z,25.88
2022-09-02T13:48:14.445Z,25.81
2022-09-02T13:49:49.360Z,25.75
2022-09-02T13:50:52.183Z,25.69
2022-09-02T13:51:55.219Z,25.69
2022-09-02T13:55:25.314Z,25.56
2022-09-02T13:56:33.414Z,25.56
2022-09-02T13:57:36.403Z,25.50
2022-09-02T13:59:10.879Z,25.50
2022-09-02T14:00:12.550Z,25.44
2022-09-02T14:01:16.879Z,25.44
2022-09-02T14:02:21.857Z,25.44
2022-09-02T14:04:01.568Z,25.38
2022-09-02T14:05:07.557Z,25.38
2022-09-02T14:06:10.806Z,25.38
2022-09-02T14:07:48.933Z,25.25
2022-09-02T14:08:53.716Z,25.25
2022-09-02T14:09:56.689Z,25.19
2022-09-02T14:11:31.472Z,25.19
2022-09-02T14:12:34.511Z,25.13
2022-09-02T14:13:37.286Z,25.06
2022-09-02T14:15:12.024Z,25.06
2022-09-02T14:16:15.218Z,25.06
2022-09-02T14:17:18.361Z,25.06
2022-09-02T14:18:58.981Z,25.06
2022-09-02T14:20:02.325Z,25.06
2022-09-02T14:21:05.161Z,25.06
2022-09-02T14:22:39.953Z,25.06
2022-09-02T14:23:43.532Z,25.13
2022-09-02T14:24:46.624Z,25.13
2022-09-02T14:26:21.410Z,25.13
2022-09-02T14:27:24.183Z,25.19
2022-09-02T14:28:28.452Z,25.25
2022-09-02T14:30:03.591Z,25.50
2022-09-02T14:31:06.435Z,25.56
2022-09-02T14:32:15.571Z,25.56
2022-09-02T14:33:51.324Z,25.56
2022-09-02T14:34:54.257Z,25.56
2022-09-02T14:35:56.999Z,25.56
2022-09-02T14:37:32.011Z,25.56
2022-09-02T14:38:36.709Z,25.63
2022-09-02T14:39:39.736Z,25.69
2022-09-02T14:41:14.885Z,25.75
2022-09-02T14:42:17.917Z,25.94
2022-09-02T14:43:32.551Z,26.00
2022-09-02T14:45:07.851Z,26.00
2022-09-02T14:46:10.925Z,25.94
2022-09-02T14:47:14.242Z,25.94
2022-09-02T14:48:56.014Z,26.06
2022-09-02T14:49:58.894Z,26.13
2022-09-02T14:51:02.629Z,26.19
2022-09-02T14:52:37.939Z,26.25
2022-09-02T14:53:40.932Z,26.25
2022-09-02T14:54:43.786Z,26.31
2022-09-02T14:56:18.755Z,26.31
2022-09-02T14:57:21.538Z,26.25
2022-09-02T14:58:26.993Z,26.31
2022-09-02T15:00:12.252Z,26.38
2022-09-02T15:01:20.865Z,26.38
2022-09-02T15:02:24.209Z,26.38
2022-09-02T15:03:59.011Z,26.38
2022-09-02T15:05:02.927Z,26.38
2022-09-02T15:06:06.181Z,26.38
2022-09-02T15:07:44.559Z,26.38
2022-09-02T15:08:47.409Z,26.38
2022-09-02T15:09:51.596Z,26.38
2022-09-02T15:11:26.245Z,26.38
2022-09-02T15:12:29.429Z,26.44
2022-09-02T15:13:32.208Z,26.44
2022-09-02T15:15:07.305Z,26.50
2022-09-02T15:16:10.637Z,26.50
2022-09-02T15:17:13.726Z,26.44
2022-09-02T15:18:49.883Z,26.38
2022-09-02T15:19:52.827Z,26.31
2022-09-02T15:20:58.788Z,26.19
2022-09-02T15:22:33.374Z,26.13
2022-09-02T15:23:39.185Z,26.06
2022-09-02T15:24:48.976Z,26.00
2022-09-02T15:26:23.595Z,25.94
2022-09-02T15:27:26.483Z,25.81
2022-09-02T15:28:29.509Z,25.81
2022-09-02T15:30:09.564Z,25.75
2022-09-02T15:31:12.494Z,25.69
2022-09-02T15:32:15.745Z,25.69
2022-09-02T15:33:57.473Z,25.69
2022-09-02T15:35:01.339Z,25.63
2022-09-02T15:36:04.003Z,25.63
2022-09-02T15:37:38.650Z,25.56
2022-09-02T15:38:41.795Z,25.56
2022-09-02T15:39:44.934Z,25.56
2022-09-02T15:41:20.326Z,25.56
2022-09-02T15:42:24.981Z,25.50
2022-09-02T15:43:27.767Z,25.50
2022-09-02T15:45:04.279Z,25.44
2022-09-02T15:46:07.361Z,25.38
2022-09-02T15:47:10.930Z,25.44
2022-09-02T15:48:45.641Z,25.44
2022-09-02T15:49:53.858Z,25.44
2022-09-02T15:51:03.277Z,25.44
2022-09-02T15:52:41.768Z,25.44
2022-09-02T15:53:44.632Z,25.38
2022-09-02T15:54:51.514Z,25.38
2022-09-02T15:56:31.599Z,25.38
2022-09-02T15:57:34.435Z,25.44
2022-09-02T15:58:37.694Z,25.44
2022-09-02T16:00:11.897Z,25.50
2022-09-02T16:01:22.112Z,25.50
2022-09-02T16:02:28.033Z,25.50
2022-09-02T16:04:03.562Z,25.56
2022-09-02T16:05:43.336Z,25.50
2022-09-02T16:06:46.138Z,25.50
2022-09-02T16:07:52.243Z,25.44
2022-09-02T16:09:26.951Z,25.25
2022-09-02T16:10:29.837Z,25.19
2022-09-02T16:11:32.477Z,25.19